sensor_id;sensor_type;location;lat;lon;timestamp;pressure;altitude;pressure_sealevel;temperature;humidity
15678;BME280;7939;50.814;6.368;2023-02-02T00:01:11;100484.53;;;9.83;66.87
15678;BME280;7939;50.814;6.368;2023-02-02T00:03:37;100481.97;;;9.81;67.21
15678;BME280;7939;50.814;6.368;2023-02-02T00:06:04;100481.13;;;9.82;66.94
15678;BME280;7939;50.814;6.368;2023-02-02T00:08:31;100480.28;;;9.83;66.98
15678;BME280;7939;50.814;6.368;2023-02-02T00:11:00;100471.78;;;9.84;67.01
15678;BME280;7939;50.814;6.368;2023-02-02T00:13:26;100488.81;;;9.85;66.83
15678;BME280;7939;50.814;6.368;2023-02-02T00:15:54;100474.34;;;9.84;66.92
15678;BME280;7939;50.814;6.368;2023-02-02T00:18:21;100481.19;;;9.87;66.68
15678;BME280;7939;50.814;6.368;2023-02-02T00:20:48;100470.94;;;9.85;66.54
15678;BME280;7939;50.814;6.368;2023-02-02T00:23:15;100473.50;;;9.85;66.89
15678;BME280;7939;50.814;6.368;2023-02-02T00:25:42;100473.53;;;9.87;66.85
15678;BME280;7939;50.814;6.368;2023-02-02T00:28:08;100479.44;;;9.83;67.39
15678;BME280;7939;50.814;6.368;2023-02-02T00:30:35;100466.69;;;9.86;66.75
15678;BME280;7939;50.814;6.368;2023-02-02T00:33:03;100476.00;;;9.82;67.15
15678;BME280;7939;50.814;6.368;2023-02-02T00:35:30;100475.19;;;9.83;67.11
15678;BME280;7939;50.814;6.368;2023-02-02T00:37:57;100467.53;;;9.83;66.83
15678;BME280;7939;50.814;6.368;2023-02-02T00:40:24;100470.97;;;9.87;67.08
15678;BME280;7939;50.814;6.368;2023-02-02T00:42:51;100473.47;;;9.84;67.05
15678;BME280;7939;50.814;6.368;2023-02-02T00:45:17;100472.63;;;9.85;66.79
15678;BME280;7939;50.814;6.368;2023-02-02T00:47:45;100469.25;;;9.86;66.81
15678;BME280;7939;50.814;6.368;2023-02-02T00:50:16;100459.88;;;9.86;67.11
15678;BME280;7939;50.814;6.368;2023-02-02T00:52:43;100454.75;;;9.83;66.83
15678;BME280;7939;50.814;6.368;2023-02-02T00:55:11;100459.00;;;9.83;67.41
15678;BME280;7939;50.814;6.368;2023-02-02T00:57:39;100450.50;;;9.84;67.59
15678;BME280;7939;50.814;6.368;2023-02-02T01:00:12;100448.81;;;9.86;67.03
15678;BME280;7939;50.814;6.368;2023-02-02T01:02:49;100462.44;;;9.85;67.12
15678;BME280;7939;50.814;6.368;2023-02-02T01:05:17;100458.16;;;9.84;66.90
15678;BME280;7939;50.814;6.368;2023-02-02T01:07:45;100456.44;;;9.83;67.54
15678;BME280;7939;50.814;6.368;2023-02-02T01:10:13;100468.38;;;9.85;66.97
15678;BME280;7939;50.814;6.368;2023-02-02T01:12:40;100465.00;;;9.86;66.84
15678;BME280;7939;50.814;6.368;2023-02-02T01:15:08;100459.03;;;9.86;66.93
15678;BME280;7939;50.814;6.368;2023-02-02T01:17:35;100471.84;;;9.89;67.00
15678;BME280;7939;50.814;6.368;2023-02-02T01:20:02;100463.34;;;9.88;66.43
15678;BME280;7939;50.814;6.368;2023-02-02T01:22:31;100458.22;;;9.87;66.94
15678;BME280;7939;50.814;6.368;2023-02-02T01:24:58;100458.19;;;9.85;67.22
15678;BME280;7939;50.814;6.368;2023-02-02T01:27:25;100453.81;;;9.78;67.18
15678;BME280;7939;50.814;6.368;2023-02-02T01:29:52;100465.81;;;9.84;66.86
15678;BME280;7939;50.814;6.368;2023-02-02T01:32:18;100466.66;;;9.83;67.12
15678;BME280;7939;50.814;6.368;2023-02-02T01:34:46;100464.13;;;9.84;67.19
15678;BME280;7939;50.814;6.368;2023-02-02T01:37:12;100464.13;;;9.86;66.91
15678;BME280;7939;50.814;6.368;2023-02-02T01:39:41;100471.75;;;9.81;67.00
15678;BME280;7939;50.814;6.368;2023-02-02T01:42:11;100470.94;;;9.84;67.21
15678;BME280;7939;50.814;6.368;2023-02-02T01:45:02;100473.47;;;9.84;67.18
15678;BME280;7939;50.814;6.368;2023-02-02T01:47:32;100487.94;;;9.85;67.22
15678;BME280;7939;50.814;6.368;2023-02-02T01:50:01;100476.03;;;9.84;66.93
15678;BME280;7939;50.814;6.368;2023-02-02T01:52:29;100485.41;;;9.85;67.13
15678;BME280;7939;50.814;6.368;2023-02-02T01:55:02;100485.41;;;9.86;67.20
15678;BME280;7939;50.814;6.368;2023-02-02T01:57:34;100491.34;;;9.85;66.61
15678;BME280;7939;50.814;6.368;2023-02-02T02:00:06;100493.97;;;9.87;66.77
15678;BME280;7939;50.814;6.368;2023-02-02T02:02:33;100491.34;;;9.85;67.64
15678;BME280;7939;50.814;6.368;2023-02-02T02:05:02;100493.97;;;9.87;67.01
15678;BME280;7939;50.814;6.368;2023-02-02T02:07:29;100493.13;;;9.88;66.68
15678;BME280;7939;50.814;6.368;2023-02-02T02:09:56;100489.72;;;9.87;67.23
15678;BME280;7939;50.814;6.368;2023-02-02T02:12:24;100489.72;;;9.87;67.33
15678;BME280;7939;50.814;6.368;2023-02-02T02:14:51;100489.72;;;9.89;66.90
15678;BME280;7939;50.814;6.368;2023-02-02T02:17:42;100490.56;;;9.88;66.81
15678;BME280;7939;50.814;6.368;2023-02-02T02:20:31;100486.31;;;9.87;67.10
15678;BME280;7939;50.814;6.368;2023-02-02T02:23:52;100482.91;;;9.88;67.07
15678;BME280;7939;50.814;6.368;2023-02-02T02:27:19;100481.22;;;9.88;67.23
15678;BME280;7939;50.814;6.368;2023-02-02T02:30:16;100478.66;;;9.88;67.19
15678;BME280;7939;50.814;6.368;2023-02-02T02:32:50;100473.53;;;9.87;67.04
15678;BME280;7939;50.814;6.368;2023-02-02T02:35:25;100476.97;;;9.90;67.09
15678;BME280;7939;50.814;6.368;2023-02-02T02:37:59;100477.81;;;9.91;66.84
15678;BME280;7939;50.814;6.368;2023-02-02T02:40:34;100490.56;;;9.88;66.88
15678;BME280;7939;50.814;6.368;2023-02-02T02:43:08;100476.13;;;9.90;67.08
15678;BME280;7939;50.814;6.368;2023-02-02T02:45:36;100474.41;;;9.90;66.94
15678;BME280;7939;50.814;6.368;2023-02-02T02:48:07;100486.31;;;9.90;66.91
15678;BME280;7939;50.814;6.368;2023-02-02T02:50:34;100480.38;;;9.91;66.87
15678;BME280;7939;50.814;6.368;2023-02-02T02:53:04;100478.66;;;9.90;66.98
15678;BME280;7939;50.814;6.368;2023-02-02T02:55:47;100483.78;;;9.90;66.88
15678;BME280;7939;50.814;6.368;2023-02-02T02:58:17;100485.47;;;9.91;66.84
15678;BME280;7939;50.814;6.368;2023-02-02T03:00:53;100482.91;;;9.89;67.11
15678;BME280;7939;50.814;6.368;2023-02-02T03:03:32;100484.56;;;9.86;66.85
15678;BME280;7939;50.814;6.368;2023-02-02T03:06:09;100485.47;;;9.88;67.23
15678;BME280;7939;50.814;6.368;2023-02-02T03:08:40;100496.53;;;9.90;67.43
15678;BME280;7939;50.814;6.368;2023-02-02T03:11:10;100500.81;;;9.92;66.89
15678;BME280;7939;50.814;6.368;2023-02-02T03:13:39;100487.25;;;9.93;66.65
15678;BME280;7939;50.814;6.368;2023-02-02T03:16:07;100496.56;;;9.91;66.90
15678;BME280;7939;50.814;6.368;2023-02-02T03:18:35;100496.56;;;9.93;66.80
15678;BME280;7939;50.814;6.368;2023-02-02T03:21:02;100499.13;;;9.93;66.79
15678;BME280;7939;50.814;6.368;2023-02-02T03:23:29;100494.91;;;9.93;67.18
15678;BME280;7939;50.814;6.368;2023-02-02T03:25:56;100496.56;;;9.93;66.90
15678;BME280;7939;50.814;6.368;2023-02-02T03:28:24;100494.06;;;9.94;67.07
15678;BME280;7939;50.814;6.368;2023-02-02T03:30:52;100497.41;;;9.92;66.86
15678;BME280;7939;50.814;6.368;2023-02-02T03:33:20;100498.31;;;9.94;66.61
15678;BME280;7939;50.814;6.368;2023-02-02T03:35:48;100499.13;;;9.93;67.10
15678;BME280;7939;50.814;6.368;2023-02-02T03:38:15;100494.81;;;9.89;67.11
15678;BME280;7939;50.814;6.368;2023-02-02T03:40:41;100498.25;;;9.92;67.18
15678;BME280;7939;50.814;6.368;2023-02-02T03:43:08;100498.25;;;9.92;66.81
15678;BME280;7939;50.814;6.368;2023-02-02T03:45:34;100500.81;;;9.91;66.97
15678;BME280;7939;50.814;6.368;2023-02-02T03:48:02;100498.25;;;9.89;67.34
15678;BME280;7939;50.814;6.368;2023-02-02T03:50:29;100504.19;;;9.88;67.14
15678;BME280;7939;50.814;6.368;2023-02-02T03:52:57;100527.19;;;9.93;67.41
15678;BME280;7939;50.814;6.368;2023-02-02T03:55:24;100516.13;;;9.92;67.31
15678;BME280;7939;50.814;6.368;2023-02-02T03:57:51;100518.69;;;9.92;67.24
15678;BME280;7939;50.814;6.368;2023-02-02T04:00:18;100518.69;;;9.91;67.33
15678;BME280;7939;50.814;6.368;2023-02-02T04:02:45;100511.03;;;9.92;67.09
15678;BME280;7939;50.814;6.368;2023-02-02T04:05:12;100511.94;;;9.94;67.14
15678;BME280;7939;50.814;6.368;2023-02-02T04:07:38;100514.44;;;9.91;67.22
15678;BME280;7939;50.814;6.368;2023-02-02T04:10:07;100505.88;;;9.88;67.41
15678;BME280;7939;50.814;6.368;2023-02-02T04:12:34;100505.06;;;9.90;67.02
15678;BME280;7939;50.814;6.368;2023-02-02T04:15:00;100501.66;;;9.91;67.03
15678;BME280;7939;50.814;6.368;2023-02-02T04:17:27;100510.22;;;9.95;67.21
15678;BME280;7939;50.814;6.368;2023-02-02T04:19:54;100521.22;;;9.91;67.28
15678;BME280;7939;50.814;6.368;2023-02-02T04:22:22;100513.53;;;9.88;67.09
15678;BME280;7939;50.814;6.368;2023-02-02T04:24:49;100508.44;;;9.88;67.35
15678;BME280;7939;50.814;6.368;2023-02-02T04:27:17;100511.00;;;9.91;66.72
15678;BME280;7939;50.814;6.368;2023-02-02T04:29:43;100506.78;;;9.93;67.37
15678;BME280;7939;50.814;6.368;2023-02-02T04:32:10;100507.59;;;9.89;67.12
15678;BME280;7939;50.814;6.368;2023-02-02T04:34:37;100508.47;;;9.91;67.09
15678;BME280;7939;50.814;6.368;2023-02-02T04:37:04;100525.50;;;9.92;66.98
15678;BME280;7939;50.814;6.368;2023-02-02T04:39:31;100529.69;;;9.87;67.40
15678;BME280;7939;50.814;6.368;2023-02-02T04:41:57;100523.78;;;9.91;67.42
15678;BME280;7939;50.814;6.368;2023-02-02T04:44:25;100537.47;;;9.94;67.23
15678;BME280;7939;50.814;6.368;2023-02-02T04:46:52;100533.22;;;9.95;67.43
15678;BME280;7939;50.814;6.368;2023-02-02T04:49:19;100531.44;;;9.92;67.32
15678;BME280;7939;50.814;6.368;2023-02-02T04:51:46;100536.63;;;9.97;67.16
15678;BME280;7939;50.814;6.368;2023-02-02T04:54:14;100540.84;;;9.93;67.02
15678;BME280;7939;50.814;6.368;2023-02-02T04:56:41;100546.81;;;9.94;67.11
15678;BME280;7939;50.814;6.368;2023-02-02T04:59:08;100547.69;;;9.94;67.40
15678;BME280;7939;50.814;6.368;2023-02-02T05:01:36;100546.81;;;9.94;67.33
15678;BME280;7939;50.814;6.368;2023-02-02T05:04:03;100548.53;;;9.96;66.90
15678;BME280;7939;50.814;6.368;2023-02-02T05:06:30;100541.72;;;9.95;67.09
15678;BME280;7939;50.814;6.368;2023-02-02T05:08:56;100535.78;;;9.96;67.33
15678;BME280;7939;50.814;6.368;2023-02-02T05:11:24;100541.72;;;9.95;67.62
15678;BME280;7939;50.814;6.368;2023-02-02T05:13:52;100536.56;;;9.92;67.35
15678;BME280;7939;50.814;6.368;2023-02-02T05:16:20;100538.31;;;9.93;67.40
15678;BME280;7939;50.814;6.368;2023-02-02T05:18:49;100538.25;;;9.92;67.36
15678;BME280;7939;50.814;6.368;2023-02-02T05:21:16;100538.25;;;9.92;67.61
15678;BME280;7939;50.814;6.368;2023-02-02T05:23:43;100550.19;;;9.93;67.40
15678;BME280;7939;50.814;6.368;2023-02-02T05:26:11;100552.69;;;9.90;67.40
15678;BME280;7939;50.814;6.368;2023-02-02T05:28:40;100551.00;;;9.90;67.28
15678;BME280;7939;50.814;6.368;2023-02-02T05:31:07;100552.72;;;9.93;67.55
15678;BME280;7939;50.814;6.368;2023-02-02T05:33:34;100542.50;;;9.91;67.40
15678;BME280;7939;50.814;6.368;2023-02-02T05:36:02;100537.38;;;9.90;67.23
15678;BME280;7939;50.814;6.368;2023-02-02T05:38:28;100532.28;;;9.90;67.48
15678;BME280;7939;50.814;6.368;2023-02-02T05:40:55;100543.28;;;9.86;67.73
15678;BME280;7939;50.814;6.368;2023-02-02T05:43:23;100543.34;;;9.89;67.53
15678;BME280;7939;50.814;6.368;2023-02-02T05:45:50;100542.47;;;9.87;67.63
15678;BME280;7939;50.814;6.368;2023-02-02T05:48:18;100548.41;;;9.87;67.84
15678;BME280;7939;50.814;6.368;2023-02-02T05:50:47;100541.44;;;9.77;67.91
15678;BME280;7939;50.814;6.368;2023-02-02T05:53:21;100532.25;;;9.87;67.97
15678;BME280;7939;50.814;6.368;2023-02-02T05:55:48;100531.34;;;9.83;67.81
15678;BME280;7939;50.814;6.368;2023-02-02T05:58:15;100533.91;;;9.86;67.91
15678;BME280;7939;50.814;6.368;2023-02-02T06:00:41;100531.34;;;9.86;67.64
15678;BME280;7939;50.814;6.368;2023-02-02T06:03:08;100534.81;;;9.88;67.38
15678;BME280;7939;50.814;6.368;2023-02-02T06:05:37;100553.53;;;9.87;67.55
15678;BME280;7939;50.814;6.368;2023-02-02T06:08:04;100544.94;;;9.84;67.76
15678;BME280;7939;50.814;6.368;2023-02-02T06:10:32;100550.13;;;9.87;67.67
15678;BME280;7939;50.814;6.368;2023-02-02T06:12:59;100535.66;;;9.87;67.63
15678;BME280;7939;50.814;6.368;2023-02-02T06:15:26;100545.03;;;9.88;67.66
15678;BME280;7939;50.814;6.368;2023-02-02T06:17:53;100556.78;;;9.80;67.93
15678;BME280;7939;50.814;6.368;2023-02-02T06:20:20;100550.06;;;9.84;68.12
15678;BME280;7939;50.814;6.368;2023-02-02T06:22:46;100547.50;;;9.82;67.94
15678;BME280;7939;50.814;6.368;2023-02-02T06:25:13;100565.28;;;9.78;68.03
15678;BME280;7939;50.814;6.368;2023-02-02T06:27:42;100567.09;;;9.85;68.06
15678;BME280;7939;50.814;6.368;2023-02-02T06:30:11;100567.94;;;9.85;68.17
15678;BME280;7939;50.814;6.368;2023-02-02T06:32:38;100567.94;;;9.84;68.17
15678;BME280;7939;50.814;6.368;2023-02-02T06:35:06;100569.66;;;9.86;68.20
15678;BME280;7939;50.814;6.368;2023-02-02T06:37:33;100568.84;;;9.87;68.28
15678;BME280;7939;50.814;6.368;2023-02-02T06:39:59;100558.59;;;9.86;68.42
15678;BME280;7939;50.814;6.368;2023-02-02T06:42:26;100552.56;;;9.81;68.34
15678;BME280;7939;50.814;6.368;2023-02-02T06:44:54;100549.22;;;9.85;68.15
15678;BME280;7939;50.814;6.368;2023-02-02T06:47:20;100550.97;;;9.87;68.05
15678;BME280;7939;50.814;6.368;2023-02-02T06:49:47;100553.53;;;9.87;68.16
15678;BME280;7939;50.814;6.368;2023-02-02T06:52:14;100561.94;;;9.82;68.52
15678;BME280;7939;50.814;6.368;2023-02-02T06:54:40;100562.84;;;9.85;68.27
15678;BME280;7939;50.814;6.368;2023-02-02T06:57:07;100573.09;;;9.87;68.31
15678;BME280;7939;50.814;6.368;2023-02-02T06:59:34;100580.56;;;9.76;68.77
15678;BME280;7939;50.814;6.368;2023-02-02T07:02:01;100582.38;;;9.83;68.64
15678;BME280;7939;50.814;6.368;2023-02-02T07:04:28;100576.41;;;9.81;68.19
15678;BME280;7939;50.814;6.368;2023-02-02T07:06:55;100578.09;;;9.81;68.59
15678;BME280;7939;50.814;6.368;2023-02-02T07:09:22;100587.53;;;9.86;68.43
15678;BME280;7939;50.814;6.368;2023-02-02T07:11:49;100590.03;;;9.82;68.57
15678;BME280;7939;50.814;6.368;2023-02-02T07:14:16;100590.03;;;9.83;68.44
15678;BME280;7939;50.814;6.368;2023-02-02T07:16:42;100590.06;;;9.85;68.24
15678;BME280;7939;50.814;6.368;2023-02-02T07:19:11;100593.44;;;9.84;68.64
15678;BME280;7939;50.814;6.368;2023-02-02T07:21:37;100592.63;;;9.85;68.17
15678;BME280;7939;50.814;6.368;2023-02-02T07:24:05;100603.69;;;9.85;68.35
15678;BME280;7939;50.814;6.368;2023-02-02T07:26:33;100601.13;;;9.85;68.75
15678;BME280;7939;50.814;6.368;2023-02-02T07:29:00;100605.34;;;9.83;68.52
15678;BME280;7939;50.814;6.368;2023-02-02T07:31:28;100601.94;;;9.83;68.52
15678;BME280;7939;50.814;6.368;2023-02-02T07:33:55;100597.72;;;9.85;68.62
15678;BME280;7939;50.814;6.368;2023-02-02T07:36:23;100598.56;;;9.85;68.67
15678;BME280;7939;50.814;6.368;2023-02-02T07:38:52;100605.28;;;9.79;68.69
15678;BME280;7939;50.814;6.368;2023-02-02T07:41:19;100601.06;;;9.81;68.85
15678;BME280;7939;50.814;6.368;2023-02-02T07:43:46;100603.66;;;9.84;68.74
15678;BME280;7939;50.814;6.368;2023-02-02T07:46:14;100604.53;;;9.86;68.88
15678;BME280;7939;50.814;6.368;2023-02-02T07:48:41;100608.75;;;9.82;68.79
15678;BME280;7939;50.814;6.368;2023-02-02T07:51:11;100605.38;;;9.85;68.40
15678;BME280;7939;50.814;6.368;2023-02-02T07:53:42;100609.69;;;9.87;68.60
15678;BME280;7939;50.814;6.368;2023-02-02T07:56:10;100602.81;;;9.83;68.74
15678;BME280;7939;50.814;6.368;2023-02-02T07:58:37;100603.69;;;9.85;68.07
15678;BME280;7939;50.814;6.368;2023-02-02T08:01:05;100608.75;;;9.84;68.71
15678;BME280;7939;50.814;6.368;2023-02-02T08:03:33;100601.09;;;9.84;68.88
15678;BME280;7939;50.814;6.368;2023-02-02T08:06:00;100612.19;;;9.84;68.86
15678;BME280;7939;50.814;6.368;2023-02-02T08:08:33;100609.63;;;9.86;68.95
15678;BME280;7939;50.814;6.368;2023-02-02T08:11:01;100602.81;;;9.83;68.58
15678;BME280;7939;50.814;6.368;2023-02-02T08:13:27;100607.09;;;9.86;68.58
15678;BME280;7939;50.814;6.368;2023-02-02T08:15:56;100613.94;;;9.87;68.93
15678;BME280;7939;50.814;6.368;2023-02-02T08:18:22;100618.22;;;9.88;68.83
15678;BME280;7939;50.814;6.368;2023-02-02T08:20:49;100620.72;;;9.86;68.86
15678;BME280;7939;50.814;6.368;2023-02-02T08:23:17;100627.47;;;9.81;68.54
15678;BME280;7939;50.814;6.368;2023-02-02T08:25:47;100630.88;;;9.83;68.75
15678;BME280;7939;50.814;6.368;2023-02-02T08:28:16;100640.16;;;9.78;68.85
15678;BME280;7939;50.814;6.368;2023-02-02T08:30:42;100647.94;;;9.86;68.94
15678;BME280;7939;50.814;6.368;2023-02-02T08:33:09;100645.38;;;9.84;68.67
15678;BME280;7939;50.814;6.368;2023-02-02T08:35:39;100668.34;;;9.86;68.58
15678;BME280;7939;50.814;6.368;2023-02-02T08:38:06;100662.38;;;9.84;69.00
15678;BME280;7939;50.814;6.368;2023-02-02T08:40:33;100658.09;;;9.83;69.18
15678;BME280;7939;50.814;6.368;2023-02-02T08:42:59;100652.16;;;9.84;68.82
15678;BME280;7939;50.814;6.368;2023-02-02T08:45:29;100671.81;;;9.88;68.79
15678;BME280;7939;50.814;6.368;2023-02-02T08:47:55;100654.81;;;9.90;68.90
15678;BME280;7939;50.814;6.368;2023-02-02T08:50:22;100655.56;;;9.84;69.01
15678;BME280;7939;50.814;6.368;2023-02-02T08:52:48;100676.00;;;9.86;68.82
15678;BME280;7939;50.814;6.368;2023-02-02T08:55:15;100676.00;;;9.86;68.83
15678;BME280;7939;50.814;6.368;2023-02-02T08:57:42;100672.81;;;11.13;65.96
15678;BME280;7939;50.814;6.368;2023-02-02T09:00:10;100673.03;;;10.63;66.96
15678;BME280;7939;50.814;6.368;2023-02-02T09:02:38;100687.31;;;10.50;66.61
15678;BME280;7939;50.814;6.368;2023-02-02T09:05:05;100681.19;;;10.39;67.40
15678;BME280;7939;50.814;6.368;2023-02-02T09:07:32;100674.06;;;10.22;68.00
15678;BME280;7939;50.814;6.368;2023-02-02T09:09:59;100677.50;;;10.23;68.36
15678;BME280;7939;50.814;6.368;2023-02-02T09:12:25;100680.75;;;10.13;68.40
15678;BME280;7939;50.814;6.368;2023-02-02T09:14:52;100673.09;;;10.14;68.39
15678;BME280;7939;50.814;6.368;2023-02-02T09:17:18;100681.59;;;10.13;68.41
15678;BME280;7939;50.814;6.368;2023-02-02T09:19:46;100682.47;;;10.14;68.51
15678;BME280;7939;50.814;6.368;2023-02-02T09:22:13;100689.22;;;10.12;68.69
15678;BME280;7939;50.814;6.368;2023-02-02T09:24:39;100699.38;;;10.07;68.76
15678;BME280;7939;50.814;6.368;2023-02-02T09:27:06;100718.03;;;10.05;69.08
15678;BME280;7939;50.814;6.368;2023-02-02T09:29:33;100710.38;;;10.05;68.66
15678;BME280;7939;50.814;6.368;2023-02-02T09:31:59;100733.41;;;10.06;68.92
15678;BME280;7939;50.814;6.368;2023-02-02T09:34:26;100726.63;;;10.08;69.04
15678;BME280;7939;50.814;6.368;2023-02-02T09:36:54;100726.63;;;10.07;68.59
15678;BME280;7939;50.814;6.368;2023-02-02T09:39:20;100732.56;;;10.06;68.60
15678;BME280;7939;50.814;6.368;2023-02-02T09:42:12;100745.28;;;10.04;68.87
15678;BME280;7939;50.814;6.368;2023-02-02T09:44:54;100756.28;;;10.00;68.95
15678;BME280;7939;50.814;6.368;2023-02-02T09:47:26;100747.78;;;9.99;69.12
15678;BME280;7939;50.814;6.368;2023-02-02T09:50:01;100748.66;;;10.03;69.01
15678;BME280;7939;50.814;6.368;2023-02-02T09:52:34;100746.13;;;10.05;68.90
15678;BME280;7939;50.814;6.368;2023-02-02T09:55:09;100757.19;;;10.04;69.02
15678;BME280;7939;50.814;6.368;2023-02-02T09:57:41;100753.84;;;10.06;69.32
15678;BME280;7939;50.814;6.368;2023-02-02T10:00:21;100753.78;;;10.03;69.45
15678;BME280;7939;50.814;6.368;2023-02-02T10:02:50;100762.28;;;10.04;69.45
15678;BME280;7939;50.814;6.368;2023-02-02T10:05:24;100772.50;;;10.04;69.58
15678;BME280;7939;50.814;6.368;2023-02-02T10:07:57;100770.88;;;10.06;69.49
15678;BME280;7939;50.814;6.368;2023-02-02T10:10:30;100790.47;;;10.08;69.30
15678;BME280;7939;50.814;6.368;2023-02-02T10:13:00;100788.75;;;10.06;69.30
15678;BME280;7939;50.814;6.368;2023-02-02T10:15:36;100792.16;;;10.08;69.31
15678;BME280;7939;50.814;6.368;2023-02-02T10:18:11;100793.03;;;10.10;69.67
15678;BME280;7939;50.814;6.368;2023-02-02T10:20:44;100799.81;;;10.06;69.64
15678;BME280;7939;50.814;6.368;2023-02-02T10:23:21;100801.44;;;10.04;69.58
15678;BME280;7939;50.814;6.368;2023-02-02T10:25:54;100813.47;;;10.08;69.56
15678;BME280;7939;50.814;6.368;2023-02-02T10:28:30;100813.44;;;10.07;69.27
15678;BME280;7939;50.814;6.368;2023-02-02T10:31:01;100810.91;;;10.08;69.76
15678;BME280;7939;50.814;6.368;2023-02-02T10:33:33;100821.16;;;10.11;69.74
15678;BME280;7939;50.814;6.368;2023-02-02T10:36:09;100816.03;;;10.10;69.32
15678;BME280;7939;50.814;6.368;2023-02-02T10:38:46;100809.25;;;10.12;69.46
15678;BME280;7939;50.814;6.368;2023-02-02T10:41:19;100810.09;;;10.11;69.65
15678;BME280;7939;50.814;6.368;2023-02-02T10:44:05;100808.44;;;10.13;69.62
15678;BME280;7939;50.814;6.368;2023-02-02T10:46:38;100804.19;;;10.13;69.53
15678;BME280;7939;50.814;6.368;2023-02-02T10:49:15;100799.94;;;10.14;69.53
15678;BME280;7939;50.814;6.368;2023-02-02T10:51:49;100805.06;;;10.15;69.42
15678;BME280;7939;50.814;6.368;2023-02-02T10:54:31;100802.53;;;10.15;69.15
15678;BME280;7939;50.814;6.368;2023-02-02T10:57:05;100803.38;;;10.16;69.54
15678;BME280;7939;50.814;6.368;2023-02-02T10:59:34;100810.25;;;10.18;69.42
15678;BME280;7939;50.814;6.368;2023-02-02T11:02:08;100800.03;;;10.18;69.39
15678;BME280;7939;50.814;6.368;2023-02-02T11:04:35;100799.09;;;10.13;69.54
15678;BME280;7939;50.814;6.368;2023-02-02T11:07:20;100799.16;;;10.18;69.78
15678;BME280;7939;50.814;6.368;2023-02-02T11:09:48;100794.94;;;10.18;69.53
15678;BME280;7939;50.814;6.368;2023-02-02T11:12:19;100795.03;;;10.23;69.22
15678;BME280;7939;50.814;6.368;2023-02-02T11:14:51;100798.34;;;10.19;69.62
15678;BME280;7939;50.814;6.368;2023-02-02T11:17:22;100800.91;;;10.19;69.66
15678;BME280;7939;50.814;6.368;2023-02-02T11:19:49;100792.31;;;10.17;69.54
15678;BME280;7939;50.814;6.368;2023-02-02T11:22:29;100791.56;;;10.21;69.60
15678;BME280;7939;50.814;6.368;2023-02-02T11:25:00;100803.53;;;10.23;69.22
15678;BME280;7939;50.814;6.368;2023-02-02T11:27:30;100789.06;;;10.24;68.88
15678;BME280;7939;50.814;6.368;2023-02-02T11:30:00;100806.16;;;10.25;69.02
15678;BME280;7939;50.814;6.368;2023-02-02T11:32:34;100795.94;;;10.25;69.32
15678;BME280;7939;50.814;6.368;2023-02-02T11:35:19;100806.09;;;10.23;69.04
15678;BME280;7939;50.814;6.368;2023-02-02T11:37:53;100796.78;;;10.25;69.14
15678;BME280;7939;50.814;6.368;2023-02-02T11:40:28;100801.91;;;10.27;69.20
15678;BME280;7939;50.814;6.368;2023-02-02T11:42:57;100808.75;;;10.28;68.74
15678;BME280;7939;50.814;6.368;2023-02-02T11:45:29;100814.72;;;10.30;69.20
15678;BME280;7939;50.814;6.368;2023-02-02T11:48:04;100807.03;;;10.27;69.34
15678;BME280;7939;50.814;6.368;2023-02-02T11:50:32;100804.56;;;10.33;68.59
15678;BME280;7939;50.814;6.368;2023-02-02T11:52:59;100795.22;;;10.34;68.99
15678;BME280;7939;50.814;6.368;2023-02-02T11:55:29;100793.53;;;10.34;68.74
15678;BME280;7939;50.814;6.368;2023-02-02T11:58:19;100796.94;;;10.36;68.28
15678;BME280;7939;50.814;6.368;2023-02-02T12:00:51;100789.28;;;10.36;68.52
15678;BME280;7939;50.814;6.368;2023-02-02T12:03:24;100785.00;;;10.35;68.38
15678;BME280;7939;50.814;6.368;2023-02-02T12:05:51;100776.56;;;10.38;68.26
15678;BME280;7939;50.814;6.368;2023-02-02T12:08:18;100778.28;;;10.40;68.79
15678;BME280;7939;50.814;6.368;2023-02-02T12:10:50;100780.88;;;10.42;68.38
15678;BME280;7939;50.814;6.368;2023-02-02T12:13:29;100788.53;;;10.42;68.29
15678;BME280;7939;50.814;6.368;2023-02-02T12:16:09;100775.81;;;10.43;68.17
15678;BME280;7939;50.814;6.368;2023-02-02T12:18:49;100774.97;;;10.46;68.44
15678;BME280;7939;50.814;6.368;2023-02-02T12:21:30;100771.59;;;10.47;67.86
15678;BME280;7939;50.814;6.368;2023-02-02T12:24:16;100777.63;;;10.50;68.04
15678;BME280;7939;50.814;6.368;2023-02-02T12:26:56;100769.91;;;10.49;68.13
15678;BME280;7939;50.814;6.368;2023-02-02T12:29:40;100777.56;;;10.49;67.83
15678;BME280;7939;50.814;6.368;2023-02-02T12:32:20;100760.59;;;10.52;67.63
15678;BME280;7939;50.814;6.368;2023-02-02T12:34:58;100761.44;;;10.51;67.69
15678;BME280;7939;50.814;6.368;2023-02-02T12:37:38;100757.09;;;10.47;67.78
15678;BME280;7939;50.814;6.368;2023-02-02T12:40:35;100750.38;;;10.51;67.68
15678;BME280;7939;50.814;6.368;2023-02-02T12:43:17;100758.06;;;10.54;67.42
15678;BME280;7939;50.814;6.368;2023-02-02T12:46:00;100749.53;;;10.53;67.73
15678;BME280;7939;50.814;6.368;2023-02-02T12:48:38;100752.19;;;10.60;67.61
15678;BME280;7939;50.814;6.368;2023-02-02T12:51:19;100758.16;;;10.60;67.62
15678;BME280;7939;50.814;6.368;2023-02-02T12:54:04;100748.78;;;10.61;67.68
15678;BME280;7939;50.814;6.368;2023-02-02T12:56:39;100752.19;;;10.60;67.64
15678;BME280;7939;50.814;6.368;2023-02-02T12:59:18;100753.06;;;10.60;67.22
15678;BME280;7939;50.814;6.368;2023-02-02T13:01:59;100746.25;;;10.62;67.50
15678;BME280;7939;50.814;6.368;2023-02-02T13:04:43;100752.25;;;10.63;67.61
15678;BME280;7939;50.814;6.368;2023-02-02T13:07:31;100753.13;;;10.65;67.53
15678;BME280;7939;50.814;6.368;2023-02-02T13:10:10;100754.81;;;10.63;67.78
15678;BME280;7939;50.814;6.368;2023-02-02T13:12:41;100755.69;;;10.65;67.28
15678;BME280;7939;50.814;6.368;2023-02-02T13:15:14;100758.25;;;10.65;67.39
15678;BME280;7939;50.814;6.368;2023-02-02T13:17:47;100759.94;;;10.64;66.86
15678;BME280;7939;50.814;6.368;2023-02-02T13:20:22;100760.81;;;10.66;67.02
15678;BME280;7939;50.814;6.368;2023-02-02T13:22:52;100761.66;;;10.65;66.97
15678;BME280;7939;50.814;6.368;2023-02-02T13:25:24;100758.31;;;10.69;67.35